createdAt,value
2023-03-28T00:01:51.782Z,100936.50
2023-03-28T00:04:22.947Z,101016.03
2023-03-28T00:06:52.034Z,101028.41
2023-03-28T00:09:21.945Z,101021.31
2023-03-28T00:11:49.729Z,101023.97
2023-03-28T00:14:17.619Z,100990.41
2023-03-28T00:16:46.800Z,100985.06
2023-03-28T00:19:16.884Z,101001.88
2023-03-28T00:21:47.232Z,101031.03
2023-03-28T00:24:17.408Z,101033.69
2023-03-28T00:26:49.458Z,101012.50
2023-03-28T00:29:21.150Z,101040.78
2023-03-28T00:31:50.501Z,101035.47
2023-03-28T00:34:18.766Z,101045.19
2023-03-28T00:36:46.672Z,101042.53
2023-03-28T00:39:14.573Z,101030.16
2023-03-28T00:41:43.932Z,101028.41
2023-03-28T00:44:45.821Z,101050.50
2023-03-28T00:47:20.553Z,101001.91
2023-03-28T00:49:53.001Z,100989.50
2023-03-28T00:52:25.131Z,101053.13
2023-03-28T00:54:54.125Z,101059.34
2023-03-28T00:57:23.574Z,101052.25
2023-03-28T00:59:53.158Z,101057.56
2023-03-28T01:02:21.639Z,101017.81
2023-03-28T01:04:57.708Z,101037.25
2023-03-28T01:07:26.396Z,101059.34
2023-03-28T01:09:55.382Z,101039.00
2023-03-28T01:12:24.173Z,101077.03
2023-03-28T01:14:54.335Z,101068.19
2023-03-28T01:17:22.801Z,101069.97
2023-03-28T01:20:02.760Z,101074.38
2023-03-28T01:23:07.652Z,101075.25
2023-03-28T01:26:14.242Z,101077.91
2023-03-28T01:29:12.446Z,100997.47
2023-03-28T01:32:07.564Z,101079.66
2023-03-28T01:35:29.879Z,101078.78
2023-03-28T01:38:05.643Z,101089.38
2023-03-28T01:40:39.839Z,101088.53
2023-03-28T01:43:32.652Z,101084.09
2023-03-28T01:46:07.239Z,101083.19
2023-03-28T01:48:45.045Z,101097.34
2023-03-28T01:51:22.922Z,101082.31
2023-03-28T01:53:59.333Z,101061.97
2023-03-28T01:56:32.741Z,101093.78
2023-03-28T01:59:10.455Z,101106.16
2023-03-28T02:02:07.011Z,101087.63
2023-03-28T02:04:38.261Z,101079.66
2023-03-28T02:07:08.912Z,101094.69
2023-03-28T02:09:45.747Z,101031.00
2023-03-28T02:12:41.426Z,101083.19
2023-03-28T02:15:16.990Z,101062.81
2023-03-28T02:18:23.682Z,101090.25
2023-03-28T02:21:20.570Z,100985.97
2023-03-28T02:24:06.379Z,101075.25
2023-03-28T02:26:54.277Z,101092.03
2023-03-28T02:29:31.721Z,101031.91
2023-03-28T02:32:12.659Z,101101.78
2023-03-28T02:34:41.727Z,101102.66
2023-03-28T02:37:21.605Z,101101.72
2023-03-28T02:40:03.504Z,101094.66
2023-03-28T02:43:04.905Z,101096.44
2023-03-28T02:45:59.591Z,101094.66
2023-03-28T02:48:42.839Z,101094.69
2023-03-28T02:51:20.221Z,101086.72
2023-03-28T02:53:58.670Z,101059.28
2023-03-28T02:56:38.407Z,101061.03
2023-03-28T02:59:17.575Z,101101.72
2023-03-28T03:01:45.984Z,101098.19
2023-03-28T03:04:17.212Z,101097.31
2023-03-28T03:06:48.361Z,101102.63
2023-03-28T03:09:17.431Z,101103.47
2023-03-28T03:11:45.533Z,101103.44
2023-03-28T03:14:14.759Z,101045.13
2023-03-28T03:16:43.207Z,101099.97
2023-03-28T03:19:11.956Z,101102.59
2023-03-28T03:21:39.748Z,101099.09
2023-03-28T03:24:09.770Z,101103.50
2023-03-28T03:26:40.192Z,101091.97
2023-03-28T03:29:08.276Z,101109.66
2023-03-28T03:31:38.186Z,101082.25
2023-03-28T03:34:18.129Z,101118.50
2023-03-28T03:36:52.992Z,101115.03
2023-03-28T03:39:21.191Z,101103.53
2023-03-28T03:41:49.451Z,101121.22
2023-03-28T03:44:17.241Z,101115.88
2023-03-28T03:46:46.517Z,101108.81
2023-03-28T03:49:14.422Z,101117.66
2023-03-28T03:51:43.191Z,101118.53
2023-03-28T03:54:15.883Z,101114.13
2023-03-28T03:56:43.818Z,101080.50
2023-03-28T03:59:12.662Z,101112.34
2023-03-28T04:01:43.956Z,101120.28
2023-03-28T04:04:33.017Z,101120.31
2023-03-28T04:07:26.905Z,101069.00
2023-03-28T04:09:57.877Z,101103.47
2023-03-28T04:12:28.302Z,101129.09
2023-03-28T04:14:57.299Z,101133.56
2023-03-28T04:17:37.967Z,101122.06
2023-03-28T04:20:15.292Z,101121.16
2023-03-28T04:23:01.815Z,101118.50
2023-03-28T04:25:31.959Z,101126.44
2023-03-28T04:28:27.894Z,101101.66
2023-03-28T04:31:04.413Z,101124.63
2023-03-28T04:33:53.699Z,101124.63
2023-03-28T04:36:25.847Z,101132.63
2023-03-28T04:39:03.530Z,101137.00
2023-03-28T04:42:05.570Z,101117.53
2023-03-28T04:44:51.732Z,101152.94
2023-03-28T04:47:20.250Z,101144.09
2023-03-28T04:49:48.748Z,101149.38
2023-03-28T04:52:18.348Z,101161.72
2023-03-28T04:54:48.467Z,101169.72
2023-03-28T04:57:17.573Z,101176.81
2023-03-28T04:59:48.592Z,101175.91
2023-03-28T05:02:35.853Z,101147.59
2023-03-28T05:05:07.596Z,101182.09
2023-03-28T05:07:37.762Z,101188.28
2023-03-28T05:10:08.356Z,101191.81
2023-03-28T05:12:40.262Z,101190.03
2023-03-28T05:15:09.178Z,101183.00
2023-03-28T05:17:48.346Z,101175.94
2023-03-28T05:20:22.340Z,101189.16
2023-03-28T05:22:57.239Z,101181.13
2023-03-28T05:25:26.106Z,101205.94
2023-03-28T05:27:55.721Z,101211.19
2023-03-28T05:30:24.524Z,101198.00
2023-03-28T05:32:55.571Z,101214.81
2023-03-28T05:35:23.463Z,101213.09
2023-03-28T05:37:52.569Z,101224.53
2023-03-28T05:40:22.178Z,101218.44
2023-03-28T05:42:50.903Z,101227.28
2023-03-28T05:45:21.104Z,101241.34
2023-03-28T05:48:27.226Z,101233.38
2023-03-28T05:50:55.131Z,101233.41
2023-03-28T05:53:22.940Z,101235.09
2023-03-28T05:55:52.127Z,101240.47
2023-03-28T05:58:20.252Z,101205.88
2023-03-28T06:00:48.220Z,101250.19
2023-03-28T06:03:17.781Z,101251.00
2023-03-28T06:05:47.481Z,101247.53
2023-03-28T06:08:21.391Z,101243.09
2023-03-28T06:10:49.541Z,101238.69
2023-03-28T06:13:30.442Z,101251.06
2023-03-28T06:15:58.345Z,101259.03
2023-03-28T06:18:32.072Z,101246.69
2023-03-28T06:21:00.470Z,101260.94
2023-03-28T06:23:28.644Z,101258.25
2023-03-28T06:25:57.562Z,101266.19
2023-03-28T06:28:27.379Z,101270.59
2023-03-28T06:31:19.690Z,101268.81
2023-03-28T06:33:48.027Z,101273.25
2023-03-28T06:36:19.609Z,101274.09
2023-03-28T06:38:48.418Z,101275.00
2023-03-28T06:41:16.485Z,101286.53
2023-03-28T06:43:44.368Z,101287.38
2023-03-28T06:46:32.300Z,101266.16
2023-03-28T06:49:00.802Z,101283.91
2023-03-28T06:51:48.574Z,101285.56
2023-03-28T06:54:16.474Z,101283.91
2023-03-28T06:56:44.362Z,101284.81
2023-03-28T06:59:12.326Z,101291.94
2023-03-28T07:01:41.729Z,101299.78
2023-03-28T07:04:11.952Z,101285.72
2023-03-28T07:06:42.551Z,101294.56
2023-03-28T07:09:10.581Z,101301.66
2023-03-28T07:11:42.799Z,101278.66
2023-03-28T07:14:10.666Z,101288.38
2023-03-28T07:16:38.444Z,101294.59
2023-03-28T07:19:07.706Z,101291.97
2023-03-28T07:21:37.972Z,101297.31
2023-03-28T07:24:06.428Z,101299.97
2023-03-28T07:26:46.125Z,101303.53
2023-03-28T07:29:13.984Z,101296.44
2023-03-28T07:31:42.627Z,101302.63
2023-03-28T07:34:11.912Z,101304.41
2023-03-28T07:36:39.869Z,101308.84
2023-03-28T07:39:15.186Z,101321.25
2023-03-28T07:41:43.223Z,101322.13
2023-03-28T07:44:11.033Z,101325.66
2023-03-28T07:46:39.831Z,101334.50
2023-03-28T07:49:08.484Z,101329.19
2023-03-28T07:51:38.239Z,101323.91
2023-03-28T07:54:06.208Z,101333.63
2023-03-28T07:56:34.372Z,101331.88
2023-03-28T07:59:22.507Z,101338.94
2023-03-28T08:01:53.606Z,101318.56
2023-03-28T08:04:21.717Z,101330.97
2023-03-28T08:07:07.965Z,101339.84
2023-03-28T08:09:37.791Z,101346.91
2023-03-28T08:12:16.382Z,101347.81
2023-03-28T08:14:44.311Z,101346.91
2023-03-28T08:17:12.416Z,101338.06
2023-03-28T08:19:40.253Z,101345.13
2023-03-28T08:22:16.656Z,101354.81
2023-03-28T08:24:58.808Z,101342.41
2023-03-28T08:27:26.702Z,101336.13
2023-03-28T08:29:59.283Z,101326.31
2023-03-28T08:32:28.237Z,101340.41
2023-03-28T08:35:02.782Z,101344.88
2023-03-28T08:37:33.702Z,101343.13
2023-03-28T08:40:07.017Z,101343.16
2023-03-28T08:43:06.536Z,101344.03
2023-03-28T08:45:52.369Z,101360.97
2023-03-28T08:48:25.592Z,101349.34
2023-03-28T08:51:01.125Z,101349.19
2023-03-28T08:53:39.084Z,101341.16
2023-03-28T08:56:09.284Z,101323.22
2023-03-28T08:58:47.581Z,101354.94
2023-03-28T09:01:16.868Z,101354.06
2023-03-28T09:03:45.007Z,101359.13
2023-03-28T09:06:28.748Z,101352.97
2023-03-28T09:09:30.150Z,101361.16
2023-03-28T09:12:35.403Z,101359.31
2023-03-28T09:15:43.478Z,101363.47
2023-03-28T09:18:30.852Z,101333.34
2023-03-28T09:21:06.537Z,101338.38
2023-03-28T09:23:59.550Z,101359.69
2023-03-28T09:26:53.261Z,101364.84
2023-03-28T09:29:26.105Z,101340.97
2023-03-28T09:31:59.200Z,101344.63
2023-03-28T09:34:30.690Z,101348.09
2023-03-28T09:37:15.361Z,101358.06
2023-03-28T09:39:53.800Z,101327.06
2023-03-28T09:42:35.812Z,101349.84
2023-03-28T09:45:40.735Z,101343.66
2023-03-28T09:48:19.133Z,101349.84
2023-03-28T09:50:48.803Z,101348.78
2023-03-28T09:53:23.199Z,101335.34
2023-03-28T09:56:03.321Z,101345.69
2023-03-28T09:58:51.246Z,101355.19
2023-03-28T10:01:41.609Z,101345.69
2023-03-28T10:04:38.152Z,101357.72
2023-03-28T10:07:33.156Z,101351.44
2023-03-28T10:10:22.134Z,101344.25
2023-03-28T10:12:59.126Z,101294.81
2023-03-28T10:15:35.649Z,101332.34
2023-03-28T10:18:26.192Z,101339.97
2023-03-28T10:21:16.289Z,101344.44
2023-03-28T10:23:56.287Z,101274.13
2023-03-28T10:26:26.649Z,101338.06
2023-03-28T10:29:01.097Z,101347.34
2023-03-28T10:31:34.215Z,101337.63
2023-03-28T10:34:33.663Z,101315.66
2023-03-28T10:37:27.362Z,101350.03
2023-03-28T10:40:25.492Z,101337.63
2023-03-28T10:43:14.235Z,101345.75
2023-03-28T10:46:16.973Z,101348.19
2023-03-28T10:49:06.629Z,101339.63
2023-03-28T10:51:39.450Z,101325.63
2023-03-28T10:54:20.786Z,101339.13
2023-03-28T10:56:53.495Z,101350.97
2023-03-28T10:59:50.689Z,101345.75
2023-03-28T11:02:54.481Z,101337.44
2023-03-28T11:05:41.203Z,101331.47
2023-03-28T11:08:31.078Z,101314.31
2023-03-28T11:11:12.777Z,101327.78
2023-03-28T11:13:57.778Z,101329.47
2023-03-28T11:16:40.744Z,101321.91
2023-03-28T11:20:00.517Z,101322.97
2023-03-28T11:22:47.607Z,101318.47
2023-03-28T11:25:29.666Z,101298.22
2023-03-28T11:28:08.049Z,101309.59
2023-03-28T11:30:43.281Z,101312.69
2023-03-28T11:33:28.870Z,101273.44
2023-03-28T11:36:08.949Z,101311.63
2023-03-28T11:38:41.752Z,101314.34
2023-03-28T11:41:13.660Z,101307.69
2023-03-28T11:44:04.131Z,101312.16
2023-03-28T11:46:38.120Z,101261.56
2023-03-28T11:49:17.736Z,101303.78
2023-03-28T11:51:52.084Z,101307.78
2023-03-28T11:54:25.742Z,101301.78
2023-03-28T11:56:57.519Z,101277.28
2023-03-28T11:59:41.743Z,101273.81
2023-03-28T12:02:24.195Z,101302.63
2023-03-28T12:04:58.910Z,101289.00
2023-03-28T12:07:32.690Z,101285.38
2023-03-28T12:10:21.637Z,101271.81
2023-03-28T12:12:58.317Z,101278.38
2023-03-28T12:15:34.981Z,101277.84
2023-03-28T12:18:17.933Z,101272.06
2023-03-28T12:20:52.248Z,101270.28
2023-03-28T12:23:38.957Z,101242.19
2023-03-28T12:26:37.069Z,101269.47
2023-03-28T12:29:11.376Z,101252.03
2023-03-28T12:31:46.436Z,101194.06
2023-03-28T12:34:30.546Z,101216.53
2023-03-28T12:37:25.067Z,101260.59
2023-03-28T12:40:00.225Z,101235.56
2023-03-28T12:42:32.846Z,101252.13
2023-03-28T12:45:03.622Z,101248.16
2023-03-28T12:47:36.506Z,101224.56
2023-03-28T12:50:08.837Z,101190.59
2023-03-28T12:52:41.944Z,101249.81
2023-03-28T12:55:43.457Z,101237.72
2023-03-28T12:58:22.829Z,101232.09
2023-03-28T13:01:14.820Z,101234.88
2023-03-28T13:04:12.416Z,101237.97
2023-03-28T13:07:04.397Z,101232.28
2023-03-28T13:09:52.493Z,101218.38
2023-03-28T13:12:29.178Z,101197.25
2023-03-28T13:15:03.893Z,101224.88
2023-03-28T13:17:35.029Z,101221.53
2023-03-28T13:20:09.666Z,101155.06
2023-03-28T13:22:44.237Z,101219.97
2023-03-28T13:25:25.927Z,101108.06
2023-03-28T13:27:56.990Z,101170.97
2023-03-28T13:30:28.742Z,101203.41
2023-03-28T13:32:58.234Z,101193.94
2023-03-28T13:35:47.583Z,101188.09
2023-03-28T13:38:32.938Z,101187.13
2023-03-28T13:41:02.468Z,101197.53
2023-03-28T13:43:43.288Z,101193.06
2023-03-28T13:46:16.193Z,101192.56
2023-03-28T13:48:50.856Z,101197.13
2023-03-28T13:51:23.520Z,101164.44
2023-03-28T13:53:51.571Z,101188.00
2023-03-28T13:56:24.533Z,101183.59
2023-03-28T13:58:55.469Z,101162.03
2023-03-28T14:01:27.224Z,101159.75
2023-03-28T14:03:56.811Z,101156.19
2023-03-28T14:06:26.415Z,101164.06
2023-03-28T14:08:56.127Z,101129.91
2023-03-28T14:11:30.601Z,101156.19
2023-03-28T14:14:09.338Z,101163.38
2023-03-28T14:16:39.958Z,101159.38
2023-03-28T14:19:10.211Z,101156.53
2023-03-28T14:21:37.978Z,101152.41
2023-03-28T14:24:08.017Z,101148.50
2023-03-28T14:26:38.023Z,101047.94
2023-03-28T14:29:07.067Z,101139.91
2023-03-28T14:31:38.340Z,101129.16
2023-03-28T14:34:17.924Z,100989.31
2023-03-28T14:37:01.180Z,101115.88
2023-03-28T14:39:31.370Z,101134.06
2023-03-28T14:42:03.880Z,101121.81
2023-03-28T14:44:33.013Z,101124.22
2023-03-28T14:47:01.284Z,101113.38
2023-03-28T14:49:32.674Z,101103.19
2023-03-28T14:52:03.521Z,101099.47
2023-03-28T14:54:34.876Z,101093.78
2023-03-28T14:57:04.984Z,101091.66
2023-03-28T14:59:37.068Z,101077.75
2023-03-28T15:02:06.943Z,101066.56
2023-03-28T15:04:36.988Z,101067.72
2023-03-28T15:07:04.961Z,101055.44
2023-03-28T15:09:34.656Z,101064.66
2023-03-28T15:12:07.937Z,101066.75
2023-03-28T15:14:41.127Z,101058.63
2023-03-28T15:17:17.042Z,101055.56
2023-03-28T15:19:50.685Z,101059.84
2023-03-28T15:22:27.802Z,101045.69
2023-03-28T15:24:57.917Z,101013.13
2023-03-28T15:27:29.904Z,101011.16
2023-03-28T15:29:59.791Z,101030.63
2023-03-28T15:32:29.042Z,101035.28
2023-03-28T15:35:02.168Z,101032.91
2023-03-28T15:37:40.991Z,101013.88
2023-03-28T15:40:31.362Z,101017.53
2023-03-28T15:43:00.439Z,101017.06
2023-03-28T15:45:43.459Z,101011.09
2023-03-28T15:48:17.468Z,101007.19
2023-03-28T15:50:51.102Z,101011.78
2023-03-28T15:53:20.118Z,101005.00
2023-03-28T15:55:50.548Z,100997.94
2023-03-28T15:58:21.647Z,101000.16
2023-03-28T16:00:52.835Z,100999.38
2023-03-28T16:03:32.814Z,101002.09
2023-03-28T16:06:31.841Z,100996.63
2023-03-28T16:09:19.250Z,101007.63
2023-03-28T16:11:48.556Z,100999.22
2023-03-28T16:14:37.330Z,100994.78
2023-03-28T16:17:24.640Z,100964.69
2023-03-28T16:20:03.877Z,100987.53
2023-03-28T16:22:33.087Z,100988.78
2023-03-28T16:25:01.343Z,100984.06
2023-03-28T16:27:29.187Z,100992.53
2023-03-28T16:29:57.287Z,100962.31
2023-03-28T16:32:25.117Z,100972.59
2023-03-28T16:34:53.012Z,100972.81
2023-03-28T16:37:21.815Z,100968.69
2023-03-28T16:39:51.721Z,100963.44
2023-03-28T16:42:20.861Z,100956.78
2023-03-28T16:44:48.849Z,100956.84
2023-03-28T16:47:16.717Z,100952.38
2023-03-28T16:49:44.525Z,100949.25
2023-03-28T16:52:12.737Z,100915.00
2023-03-28T16:54:40.759Z,100947.72
2023-03-28T16:57:09.972Z,100944.16
2023-03-28T16:59:37.853Z,100940.50
2023-03-28T17:02:05.653Z,100886.78
2023-03-28T17:04:33.624Z,100936.09
2023-03-28T17:07:01.409Z,100930.69
2023-03-28T17:09:29.449Z,100926.34
2023-03-28T17:11:57.362Z,100922.72
2023-03-28T17:14:27.003Z,100927.38
2023-03-28T17:16:54.898Z,100919.25
2023-03-28T17:19:24.053Z,100781.47
2023-03-28T17:21:51.850Z,100908.09
2023-03-28T17:24:21.648Z,100885.09
2023-03-28T17:26:49.533Z,100898.13
2023-03-28T17:29:17.442Z,100888.38
2023-03-28T17:31:46.591Z,100892.94
2023-03-28T17:34:15.317Z,100901.06
2023-03-28T17:36:44.705Z,100876.44
2023-03-28T17:39:13.502Z,100887.13
2023-03-28T17:41:41.760Z,100875.03
2023-03-28T17:44:09.951Z,100884.03
2023-03-28T17:46:38.786Z,100870.91
2023-03-28T17:49:08.906Z,100644.94
2023-03-28T17:51:37.569Z,100863.09
2023-03-28T17:54:08.267Z,100864.03
2023-03-28T17:56:36.773Z,100730.28
2023-03-28T17:59:05.386Z,100868.50
2023-03-28T18:01:33.401Z,100737.47
2023-03-28T18:04:01.690Z,100862.34
2023-03-28T18:06:31.020Z,100869.38
2023-03-28T18:08:58.880Z,100878.13
2023-03-28T18:11:27.026Z,100882.91
2023-03-28T18:13:57.069Z,100871.84
2023-03-28T18:16:26.514Z,100883.63
2023-03-28T18:18:55.319Z,100849.22
2023-03-28T18:21:23.154Z,100880.84
2023-03-28T18:23:52.383Z,100877.28
2023-03-28T18:26:21.101Z,100882.69
2023-03-28T18:28:49.178Z,100878.34
2023-03-28T18:31:19.995Z,100879.38
2023-03-28T18:33:47.926Z,100875.84
2023-03-28T18:36:16.009Z,100876.84
2023-03-28T18:38:45.125Z,100876.50
2023-03-28T18:41:14.487Z,100859.75
2023-03-28T18:43:43.393Z,100856.38
2023-03-28T18:46:15.937Z,100857.06
2023-03-28T18:48:44.619Z,100855.44
2023-03-28T18:51:13.642Z,100864.16
2023-03-28T18:53:41.751Z,100859.75
2023-03-28T18:56:12.352Z,100820.13
2023-03-28T18:58:41.760Z,100854.59
2023-03-28T19:01:11.298Z,100852.78
2023-03-28T19:03:41.617Z,100838.56
2023-03-28T19:06:10.948Z,100804.09
2023-03-28T19:08:38.856Z,100838.47
2023-03-28T19:11:09.094Z,100842.34
2023-03-28T19:13:36.968Z,100832.41
2023-03-28T19:16:08.941Z,100828.16
2023-03-28T19:18:39.128Z,100833.50
2023-03-28T19:21:08.022Z,100835.25
2023-03-28T19:23:36.867Z,100837.25
2023-03-28T19:26:06.737Z,100792.34
2023-03-28T19:28:35.032Z,100833.69
2023-03-28T19:31:05.973Z,100832.91
2023-03-28T19:33:37.042Z,100828.53
2023-03-28T19:36:06.961Z,100825.19
2023-03-28T19:38:36.984Z,100797.94
2023-03-28T19:41:10.032Z,100825.16
2023-03-28T19:43:39.101Z,100816.38
2023-03-28T19:46:08.757Z,100776.03
2023-03-28T19:48:38.185Z,100817.25
2023-03-28T19:51:06.570Z,100800.47
2023-03-28T19:53:34.447Z,100775.19
2023-03-28T19:56:02.577Z,100809.25
2023-03-28T19:58:31.241Z,100804.59
2023-03-28T20:00:59.281Z,100802.91
2023-03-28T20:03:27.350Z,100766.78
2023-03-28T20:05:56.579Z,100715.94
2023-03-28T20:08:24.477Z,100801.25
2023-03-28T20:10:53.629Z,100800.81
2023-03-28T20:13:21.609Z,100797.47
2023-03-28T20:15:49.501Z,100783.69
2023-03-28T20:18:20.481Z,100793.94
2023-03-28T20:20:52.823Z,100737.84
2023-03-28T20:23:24.043Z,100788.66
2023-03-28T20:25:53.146Z,100794.94
2023-03-28T20:28:21.411Z,100791.34
2023-03-28T20:30:49.371Z,100786.63
2023-03-28T20:33:17.237Z,100747.81
2023-03-28T20:35:52.204Z,100780.34
2023-03-28T20:38:20.187Z,100759.22
2023-03-28T20:40:49.436Z,100751.50
2023-03-28T20:43:20.182Z,100773.66
2023-03-28T20:45:53.647Z,100779.00
2023-03-28T20:48:25.997Z,100741.66
2023-03-28T20:50:54.963Z,100717.91
2023-03-28T20:53:22.904Z,100725.06
2023-03-28T20:56:01.677Z,100742.47
2023-03-28T20:58:31.595Z,100750.38
2023-03-28T21:01:02.600Z,100738.88
2023-03-28T21:03:46.638Z,100761.22
2023-03-28T21:06:16.171Z,100764.63
2023-03-28T21:08:46.990Z,100760.25
2023-03-28T21:11:17.961Z,100753.31
2023-03-28T21:13:46.097Z,100753.97
2023-03-28T21:16:15.147Z,100753.28
2023-03-28T21:18:43.151Z,100747.97
2023-03-28T21:21:12.956Z,100746.25
2023-03-28T21:23:42.232Z,100737.53
2023-03-28T21:26:12.350Z,100748.81
2023-03-28T21:28:41.891Z,100734.78
2023-03-28T21:31:12.300Z,100738.41
2023-03-28T21:33:41.583Z,100735.91
2023-03-28T21:36:12.708Z,100715.34
2023-03-28T21:38:41.153Z,100729.63
2023-03-28T21:41:09.736Z,100718.22
2023-03-28T21:43:38.587Z,100718.84
2023-03-28T21:46:08.998Z,100716.97
2023-03-28T21:48:37.534Z,100727.88
2023-03-28T21:51:06.739Z,100725.16
2023-03-28T21:53:36.345Z,100723.31
2023-03-28T21:56:04.938Z,100724.06
2023-03-28T21:58:33.487Z,100718.00
2023-03-28T22:01:03.818Z,100714.66
2023-03-28T22:03:36.459Z,100724.19
2023-03-28T22:06:04.766Z,100707.94
2023-03-28T22:08:32.600Z,100688.75
2023-03-28T22:11:02.691Z,100721.38
2023-03-28T22:13:30.538Z,100711.53
2023-03-28T22:15:59.695Z,100712.66
2023-03-28T22:18:30.716Z,100714.41
2023-03-28T22:21:02.128Z,100716.53
2023-03-28T22:23:31.594Z,100702.34
2023-03-28T22:25:59.676Z,100580.66
2023-03-28T22:28:27.695Z,100691.34
2023-03-28T22:30:57.140Z,100683.41
2023-03-28T22:33:25.831Z,100674.56
2023-03-28T22:35:54.027Z,100691.84
2023-03-28T22:38:23.317Z,100684.91
2023-03-28T22:40:51.209Z,100677.72
2023-03-28T22:43:19.141Z,100679.97
2023-03-28T22:45:47.399Z,100678.00
2023-03-28T22:48:15.264Z,100679.63
2023-03-28T22:50:45.345Z,100678.06
2023-03-28T22:53:14.495Z,100590.38
2023-03-28T22:55:44.827Z,100689.44
2023-03-28T22:58:13.635Z,100682.31
2023-03-28T23:00:43.668Z,100685.22
2023-03-28T23:03:12.125Z,100668.16
2023-03-28T23:05:40.412Z,100677.66
2023-03-28T23:08:08.347Z,100675.06
2023-03-28T23:10:37.119Z,100673.28
2023-03-28T23:13:06.798Z,100668.84
2023-03-28T23:15:35.074Z,100671.00
2023-03-28T23:18:03.757Z,100670.97
2023-03-28T23:20:31.589Z,100672.75
2023-03-28T23:22:59.504Z,100668.25
2023-03-28T23:25:28.542Z,100664.69
2023-03-28T23:27:56.465Z,100668.97
2023-03-28T23:30:25.705Z,100668.97
2023-03-28T23:32:53.477Z,100662.84
2023-03-28T23:35:21.473Z,100661.94
2023-03-28T23:37:52.962Z,100664.56
2023-03-28T23:40:21.450Z,100664.50
2023-03-28T23:42:49.668Z,100663.78
2023-03-28T23:45:17.782Z,100660.25
2023-03-28T23:47:46.991Z,100666.47
2023-03-28T23:50:14.953Z,100662.09
2023-03-28T23:52:42.901Z,100658.56
2023-03-28T23:55:10.921Z,100660.94
2023-03-28T23:57:38.729Z,100635.47
